Aérodrome :
LOGIN :

S'inscrire | Disclaimer

   EN    FR    IT 

 










Légende :    VFR   VFR Marginal   IFR   IFR Intensif   IFR Très Intensif
Visi : 
Plafond : 
>= 8 km
>= 3000ft
5 à 8 km
1000 à 3000 ft
1500m à 5 km
500 à 1000 ft
800 à 1500m
200 à 500 ft
< 800m
< 200 ft
Symboles :   Orages  Brouillard  Fortes neiges  Fortes précipitations  Vent > 20 kt
SIGMETs :   Divers  Orages  Givrage  Turbulence  Onde Orograph.  Cendres Volcan.






- Altitude de l'aérodrome : 26 ft
- Code IATA : SYY


EGPO - Stornoway

DERNIER METAR :
  • 241720Z 10005KT 9999 -RA SCT021 BKN031 04/01 Q0998

METARs EXPIRÉS :
  • 241650Z 09008KT 9999 -RA SCT021 BKN030 04/01 Q0998
  • 241620Z 08008KT 9999 -RA FEW017 SCT023 BKN029 04/01 Q0998
  • 241550Z 08009KT 9999 -RA FEW017 SCT024 BKN030 04/00 Q0998
  • 241520Z 07006KT 9999 -RA FEW017 SCT025 BKN029 04/01 Q0998
  • 241450Z 06008KT 9999 -RA FEW018 BKN034 04/00 Q0999

TAF TAF EGPO
Valide du 24 à 18h jusqu'au 25 à 03h UTC


241704Z 2418/2503 09012KT 9999 SCT025
TEMPO 2418/2503 6000 RA SHRA BKN012
PROB30
TEMPO 2418/2503 -RASN BKN006
BECMG 2421/2424 15012KT
ATIS : +44 1851 707 444



MET'MAP, la Météo Aéronautique d'un coup d'oeil ! - Copyright ORBIFLY Décembre 2007 - Disclaimer

ORBIFLY MET'MAP TEAM :

Programmation & Développement : Alexandra Zaïnal
Sur une idée originale de : Baudouin d'Aumeries
Assistance à la programmation : Marc-Olivier Méhu
Soutien technique & logistique : Manuel Goepfert

Contact : metmap@orbifly.com




SOURCES & CREDITS :

   NOAA